sensor_id;sensor_type;location;lat;lon;timestamp;temperature;humidity
44063;DHT22;29727;47.606;19.130;2022-12-07T00:00:55;6.40;76.30
44063;DHT22;29727;47.606;19.130;2022-12-07T00:03:21;6.30;76.30
44063;DHT22;29727;47.606;19.130;2022-12-07T00:05:46;6.30;76.50
44063;DHT22;29727;47.606;19.130;2022-12-07T00:08:12;6.30;76.50
44063;DHT22;29727;47.606;19.130;2022-12-07T00:10:38;6.30;76.30
44063;DHT22;29727;47.606;19.130;2022-12-07T00:13:03;6.30;76.10
44063;DHT22;29727;47.606;19.130;2022-12-07T00:15:29;6.30;75.80
44063;DHT22;29727;47.606;19.130;2022-12-07T00:17:55;6.30;76.30
44063;DHT22;29727;47.606;19.130;2022-12-07T00:20:20;6.30;76.60
44063;DHT22;29727;47.606;19.130;2022-12-07T00:22:46;6.30;76.50
44063;DHT22;29727;47.606;19.130;2022-12-07T00:25:11;6.20;76.20
44063;DHT22;29727;47.606;19.130;2022-12-07T00:27:37;6.20;76.00
44063;DHT22;29727;47.606;19.130;2022-12-07T00:30:03;6.20;75.80
44063;DHT22;29727;47.606;19.130;2022-12-07T00:32:29;6.20;75.60
44063;DHT22;29727;47.606;19.130;2022-12-07T00:34:54;6.10;75.40
44063;DHT22;29727;47.606;19.130;2022-12-07T00:37:20;6.10;75.80
44063;DHT22;29727;47.606;19.130;2022-12-07T00:39:46;6.00;76.10
44063;DHT22;29727;47.606;19.130;2022-12-07T00:42:11;5.90;75.60
44063;DHT22;29727;47.606;19.130;2022-12-07T00:44:37;5.80;76.10
44063;DHT22;29727;47.606;19.130;2022-12-07T00:47:03;5.80;75.60
44063;DHT22;29727;47.606;19.130;2022-12-07T00:49:28;5.70;76.40
44063;DHT22;29727;47.606;19.130;2022-12-07T00:51:54;5.70;76.80
44063;DHT22;29727;47.606;19.130;2022-12-07T00:54:19;5.70;76.60
44063;DHT22;29727;47.606;19.130;2022-12-07T00:56:45;5.60;76.10
44063;DHT22;29727;47.606;19.130;2022-12-07T00:59:13;5.60;76.60
44063;DHT22;29727;47.606;19.130;2022-12-07T01:01:40;5.60;76.80
44063;DHT22;29727;47.606;19.130;2022-12-07T01:04:06;5.50;76.30
44063;DHT22;29727;47.606;19.130;2022-12-07T01:06:32;5.50;76.40
44063;DHT22;29727;47.606;19.130;2022-12-07T01:08:58;5.50;76.10
44063;DHT22;29727;47.606;19.130;2022-12-07T01:11:27;5.90;76.30
44063;DHT22;29727;47.606;19.130;2022-12-07T01:13:55;5.50;76.10
44063;DHT22;29727;47.606;19.130;2022-12-07T01:16:26;5.50;75.80
44063;DHT22;29727;47.606;19.130;2022-12-07T01:18:53;5.50;75.80
44063;DHT22;29727;47.606;19.130;2022-12-07T01:21:22;5.50;75.80
44063;DHT22;29727;47.606;19.130;2022-12-07T01:23:49;5.40;75.70
44063;DHT22;29727;47.606;19.130;2022-12-07T01:26:18;5.40;75.90
44063;DHT22;29727;47.606;19.130;2022-12-07T01:28:45;5.40;75.90
44063;DHT22;29727;47.606;19.130;2022-12-07T01:31:13;5.40;75.80
44063;DHT22;29727;47.606;19.130;2022-12-07T01:33:44;5.40;75.90
44063;DHT22;29727;47.606;19.130;2022-12-07T01:36:16;5.40;75.00
44063;DHT22;29727;47.606;19.130;2022-12-07T01:38:43;5.40;75.60
44063;DHT22;29727;47.606;19.130;2022-12-07T01:41:09;5.30;75.30
44063;DHT22;29727;47.606;19.130;2022-12-07T01:43:35;5.30;75.40
44063;DHT22;29727;47.606;19.130;2022-12-07T01:46:02;5.30;75.70
44063;DHT22;29727;47.606;19.130;2022-12-07T01:48:37;5.20;76.00
44063;DHT22;29727;47.606;19.130;2022-12-07T01:51:09;5.20;76.50
44063;DHT22;29727;47.606;19.130;2022-12-07T01:53:38;5.20;76.90
44063;DHT22;29727;47.606;19.130;2022-12-07T01:56:07;5.20;77.30
44063;DHT22;29727;47.606;19.130;2022-12-07T01:58:34;5.20;77.60
44063;DHT22;29727;47.606;19.130;2022-12-07T02:01:00;5.20;78.00
44063;DHT22;29727;47.606;19.130;2022-12-07T02:03:31;5.20;78.30
44063;DHT22;29727;47.606;19.130;2022-12-07T02:05:59;5.10;78.90
44063;DHT22;29727;47.606;19.130;2022-12-07T02:08:26;5.10;79.50
44063;DHT22;29727;47.606;19.130;2022-12-07T02:10:51;5.10;80.00
44063;DHT22;29727;47.606;19.130;2022-12-07T02:13:25;5.10;80.30
44063;DHT22;29727;47.606;19.130;2022-12-07T02:16:07;5.10;79.20
44063;DHT22;29727;47.606;19.130;2022-12-07T02:18:55;5.10;79.70
44063;DHT22;29727;47.606;19.130;2022-12-07T02:21:52;5.10;80.00
44063;DHT22;29727;47.606;19.130;2022-12-07T02:27:46;5.10;80.40
44063;DHT22;29727;47.606;19.130;2022-12-07T02:30:21;5.10;80.70
44063;DHT22;29727;47.606;19.130;2022-12-07T02:33:16;5.10;81.00
44063;DHT22;29727;47.606;19.130;2022-12-07T02:38:46;5.10;80.30
44063;DHT22;29727;47.606;19.130;2022-12-07T02:41:20;5.10;80.10
44063;DHT22;29727;47.606;19.130;2022-12-07T02:44:02;5.10;80.20
44063;DHT22;29727;47.606;19.130;2022-12-07T02:46:38;5.10;80.40
44063;DHT22;29727;47.606;19.130;2022-12-07T02:49:05;5.10;80.80
44063;DHT22;29727;47.606;19.130;2022-12-07T02:51:32;5.10;81.00
44063;DHT22;29727;47.606;19.130;2022-12-07T02:53:59;5.00;81.20
44063;DHT22;29727;47.606;19.130;2022-12-07T02:59:43;5.00;80.80
44063;DHT22;29727;47.606;19.130;2022-12-07T03:10:36;4.90;82.00
44063;DHT22;29727;47.606;19.130;2022-12-07T03:13:12;4.90;82.20
44063;DHT22;29727;47.606;19.130;2022-12-07T03:15:43;4.90;82.50
44063;DHT22;29727;47.606;19.130;2022-12-07T03:18:14;4.90;82.60
44063;DHT22;29727;47.606;19.130;2022-12-07T03:20:42;4.90;82.60
44063;DHT22;29727;47.606;19.130;2022-12-07T03:23:11;4.90;82.70
44063;DHT22;29727;47.606;19.130;2022-12-07T03:25:43;5.00;83.10
44063;DHT22;29727;47.606;19.130;2022-12-07T03:28:10;5.00;83.20
44063;DHT22;29727;47.606;19.130;2022-12-07T03:30:44;5.10;82.40
44063;DHT22;29727;47.606;19.130;2022-12-07T03:35:42;5.10;81.80
44063;DHT22;29727;47.606;19.130;2022-12-07T03:38:19;5.20;82.50
44063;DHT22;29727;47.606;19.130;2022-12-07T03:40:52;5.20;82.90
44063;DHT22;29727;47.606;19.130;2022-12-07T03:43:20;5.30;82.50
44063;DHT22;29727;47.606;19.130;2022-12-07T03:51:11;5.40;82.30
44063;DHT22;29727;47.606;19.130;2022-12-07T03:54:24;5.40;82.00
44063;DHT22;29727;47.606;19.130;2022-12-07T03:56:52;5.50;81.80
44063;DHT22;29727;47.606;19.130;2022-12-07T03:59:19;5.50;81.40
44063;DHT22;29727;47.606;19.130;2022-12-07T04:01:52;5.50;81.30
44063;DHT22;29727;47.606;19.130;2022-12-07T04:04:18;5.50;81.40
44063;DHT22;29727;47.606;19.130;2022-12-07T04:06:44;5.60;81.60
44063;DHT22;29727;47.606;19.130;2022-12-07T04:09:10;5.60;81.80
44063;DHT22;29727;47.606;19.130;2022-12-07T04:11:35;5.60;82.10
44063;DHT22;29727;47.606;19.130;2022-12-07T04:14:01;5.50;82.20
44063;DHT22;29727;47.606;19.130;2022-12-07T04:16:49;5.60;82.50
44063;DHT22;29727;47.606;19.130;2022-12-07T04:19:16;5.60;82.70
44063;DHT22;29727;47.606;19.130;2022-12-07T04:21:43;5.60;82.40
44063;DHT22;29727;47.606;19.130;2022-12-07T04:24:11;5.60;82.30
44063;DHT22;29727;47.606;19.130;2022-12-07T04:26:36;5.60;82.30
44063;DHT22;29727;47.606;19.130;2022-12-07T04:29:02;5.60;82.70
44063;DHT22;29727;47.606;19.130;2022-12-07T04:31:28;5.60;82.60
44063;DHT22;29727;47.606;19.130;2022-12-07T04:33:53;5.60;82.80
44063;DHT22;29727;47.606;19.130;2022-12-07T04:36:20;5.60;82.40
44063;DHT22;29727;47.606;19.130;2022-12-07T04:38:46;5.60;83.00
44063;DHT22;29727;47.606;19.130;2022-12-07T04:41:12;5.60;83.20
44063;DHT22;29727;47.606;19.130;2022-12-07T04:43:38;5.60;83.50
44063;DHT22;29727;47.606;19.130;2022-12-07T04:46:04;5.70;83.40
44063;DHT22;29727;47.606;19.130;2022-12-07T04:48:30;5.70;83.80
44063;DHT22;29727;47.606;19.130;2022-12-07T04:50:56;5.70;84.30
44063;DHT22;29727;47.606;19.130;2022-12-07T04:53:22;5.70;84.60
44063;DHT22;29727;47.606;19.130;2022-12-07T04:55:48;5.70;84.60
44063;DHT22;29727;47.606;19.130;2022-12-07T04:58:14;5.70;84.90
44063;DHT22;29727;47.606;19.130;2022-12-07T05:00:40;5.80;85.20
44063;DHT22;29727;47.606;19.130;2022-12-07T05:03:06;5.80;85.00
44063;DHT22;29727;47.606;19.130;2022-12-07T05:05:32;5.70;85.40
44063;DHT22;29727;47.606;19.130;2022-12-07T05:07:58;5.80;85.70
44063;DHT22;29727;47.606;19.130;2022-12-07T05:10:24;5.80;85.80
44063;DHT22;29727;47.606;19.130;2022-12-07T05:12:49;5.80;86.00
44063;DHT22;29727;47.606;19.130;2022-12-07T05:15:16;5.90;86.40
44063;DHT22;29727;47.606;19.130;2022-12-07T05:17:41;5.90;86.40
44063;DHT22;29727;47.606;19.130;2022-12-07T05:20:08;6.00;86.60
44063;DHT22;29727;47.606;19.130;2022-12-07T05:22:34;6.00;86.30
44063;DHT22;29727;47.606;19.130;2022-12-07T05:24:59;6.00;85.40
44063;DHT22;29727;47.606;19.130;2022-12-07T05:27:25;6.10;85.10
44063;DHT22;29727;47.606;19.130;2022-12-07T05:29:51;6.10;84.90
44063;DHT22;29727;47.606;19.130;2022-12-07T05:32:17;6.10;84.40
44063;DHT22;29727;47.606;19.130;2022-12-07T05:34:43;6.10;84.10
44063;DHT22;29727;47.606;19.130;2022-12-07T05:37:09;6.10;84.50
44063;DHT22;29727;47.606;19.130;2022-12-07T05:39:35;6.20;84.40
44063;DHT22;29727;47.606;19.130;2022-12-07T05:42:00;6.20;84.70
44063;DHT22;29727;47.606;19.130;2022-12-07T05:44:39;6.10;84.80
44063;DHT22;29727;47.606;19.130;2022-12-07T05:47:05;6.20;85.00
44063;DHT22;29727;47.606;19.130;2022-12-07T05:49:30;6.20;84.90
44063;DHT22;29727;47.606;19.130;2022-12-07T05:51:56;6.20;85.00
44063;DHT22;29727;47.606;19.130;2022-12-07T05:54:22;6.30;83.30
44063;DHT22;29727;47.606;19.130;2022-12-07T05:56:47;6.30;83.70
44063;DHT22;29727;47.606;19.130;2022-12-07T05:59:13;6.30;83.80
44063;DHT22;29727;47.606;19.130;2022-12-07T06:02:11;6.30;83.70
44063;DHT22;29727;47.606;19.130;2022-12-07T06:04:39;6.30;83.60
44063;DHT22;29727;47.606;19.130;2022-12-07T06:07:05;6.30;83.60
44063;DHT22;29727;47.606;19.130;2022-12-07T06:09:31;6.30;83.80
44063;DHT22;29727;47.606;19.130;2022-12-07T06:11:58;6.30;83.70
44063;DHT22;29727;47.606;19.130;2022-12-07T06:14:43;6.30;83.60
44063;DHT22;29727;47.606;19.130;2022-12-07T06:17:09;6.30;83.30
44063;DHT22;29727;47.606;19.130;2022-12-07T06:19:36;6.30;83.30
44063;DHT22;29727;47.606;19.130;2022-12-07T06:22:02;6.30;83.50
44063;DHT22;29727;47.606;19.130;2022-12-07T06:24:30;6.30;83.40
44063;DHT22;29727;47.606;19.130;2022-12-07T06:26:56;6.30;83.50
44063;DHT22;29727;47.606;19.130;2022-12-07T06:29:22;6.30;83.70
44063;DHT22;29727;47.606;19.130;2022-12-07T06:31:48;6.30;83.80
44063;DHT22;29727;47.606;19.130;2022-12-07T06:34:16;6.30;83.50
44063;DHT22;29727;47.606;19.130;2022-12-07T06:36:42;6.30;84.00
44063;DHT22;29727;47.606;19.130;2022-12-07T06:39:08;6.30;83.70
44063;DHT22;29727;47.606;19.130;2022-12-07T06:41:35;6.30;83.70
44063;DHT22;29727;47.606;19.130;2022-12-07T06:44:02;6.40;83.50
44063;DHT22;29727;47.606;19.130;2022-12-07T06:46:28;6.30;83.20
44063;DHT22;29727;47.606;19.130;2022-12-07T06:48:53;6.40;83.40
44063;DHT22;29727;47.606;19.130;2022-12-07T06:51:19;6.30;83.60
44063;DHT22;29727;47.606;19.130;2022-12-07T06:53:45;6.30;84.30
44063;DHT22;29727;47.606;19.130;2022-12-07T06:56:11;6.30;84.30
44063;DHT22;29727;47.606;19.130;2022-12-07T06:58:37;6.30;83.90
44063;DHT22;29727;47.606;19.130;2022-12-07T07:01:02;6.30;84.10
44063;DHT22;29727;47.606;19.130;2022-12-07T07:03:28;6.30;84.30
44063;DHT22;29727;47.606;19.130;2022-12-07T07:05:54;6.30;84.60
44063;DHT22;29727;47.606;19.130;2022-12-07T07:08:19;6.30;83.40
44063;DHT22;29727;47.606;19.130;2022-12-07T07:10:45;6.40;83.90
44063;DHT22;29727;47.606;19.130;2022-12-07T07:13:11;6.30;84.00
44063;DHT22;29727;47.606;19.130;2022-12-07T07:15:37;6.40;83.40
44063;DHT22;29727;47.606;19.130;2022-12-07T07:18:03;6.40;83.90
44063;DHT22;29727;47.606;19.130;2022-12-07T07:20:29;6.30;84.40
44063;DHT22;29727;47.606;19.130;2022-12-07T07:22:55;6.30;84.10
44063;DHT22;29727;47.606;19.130;2022-12-07T07:25:21;6.30;84.30
44063;DHT22;29727;47.606;19.130;2022-12-07T07:27:47;6.30;84.70
44063;DHT22;29727;47.606;19.130;2022-12-07T07:30:13;6.30;85.10
44063;DHT22;29727;47.606;19.130;2022-12-07T07:32:38;6.30;85.00
44063;DHT22;29727;47.606;19.130;2022-12-07T07:35:04;6.30;84.70
44063;DHT22;29727;47.606;19.130;2022-12-07T07:37:30;6.30;85.20
44063;DHT22;29727;47.606;19.130;2022-12-07T07:39:56;6.30;85.10
44063;DHT22;29727;47.606;19.130;2022-12-07T07:42:22;6.30;85.10
44063;DHT22;29727;47.606;19.130;2022-12-07T07:44:47;6.30;85.20
44063;DHT22;29727;47.606;19.130;2022-12-07T07:47:13;6.40;85.50
44063;DHT22;29727;47.606;19.130;2022-12-07T07:49:38;6.40;85.10
44063;DHT22;29727;47.606;19.130;2022-12-07T07:52:05;6.40;85.10
44063;DHT22;29727;47.606;19.130;2022-12-07T07:54:31;6.40;84.80
44063;DHT22;29727;47.606;19.130;2022-12-07T07:56:57;6.50;84.80
44063;DHT22;29727;47.606;19.130;2022-12-07T07:59:23;6.40;84.60
44063;DHT22;29727;47.606;19.130;2022-12-07T08:01:48;6.40;85.00
44063;DHT22;29727;47.606;19.130;2022-12-07T08:04:14;6.40;85.40
44063;DHT22;29727;47.606;19.130;2022-12-07T08:06:40;6.50;85.80
44063;DHT22;29727;47.606;19.130;2022-12-07T08:09:07;6.50;85.70
44063;DHT22;29727;47.606;19.130;2022-12-07T08:11:33;6.50;85.50
44063;DHT22;29727;47.606;19.130;2022-12-07T08:14:00;6.60;85.80
44063;DHT22;29727;47.606;19.130;2022-12-07T08:16:25;6.60;85.40
44063;DHT22;29727;47.606;19.130;2022-12-07T08:18:51;6.70;85.50
44063;DHT22;29727;47.606;19.130;2022-12-07T08:21:17;6.70;85.40
44063;DHT22;29727;47.606;19.130;2022-12-07T08:23:42;6.80;85.50
44063;DHT22;29727;47.606;19.130;2022-12-07T08:26:11;6.80;85.40
44063;DHT22;29727;47.606;19.130;2022-12-07T08:28:37;6.80;85.40
44063;DHT22;29727;47.606;19.130;2022-12-07T08:31:06;6.90;85.00
44063;DHT22;29727;47.606;19.130;2022-12-07T08:33:32;7.00;84.20
44063;DHT22;29727;47.606;19.130;2022-12-07T08:36:06;7.00;84.70
44063;DHT22;29727;47.606;19.130;2022-12-07T08:38:33;7.00;84.70
44063;DHT22;29727;47.606;19.130;2022-12-07T08:40:59;7.10;84.90
44063;DHT22;29727;47.606;19.130;2022-12-07T08:43:25;7.10;84.70
44063;DHT22;29727;47.606;19.130;2022-12-07T08:48:41;7.20;84.20
44063;DHT22;29727;47.606;19.130;2022-12-07T08:51:08;7.20;84.40
44063;DHT22;29727;47.606;19.130;2022-12-07T08:53:34;7.30;84.60
44063;DHT22;29727;47.606;19.130;2022-12-07T08:56:00;7.30;84.60
44063;DHT22;29727;47.606;19.130;2022-12-07T08:58:26;7.40;83.70
44063;DHT22;29727;47.606;19.130;2022-12-07T09:00:52;7.30;84.10
44063;DHT22;29727;47.606;19.130;2022-12-07T09:03:18;7.40;82.40
44063;DHT22;29727;47.606;19.130;2022-12-07T09:05:44;7.30;82.80
44063;DHT22;29727;47.606;19.130;2022-12-07T09:08:12;7.40;82.30
44063;DHT22;29727;47.606;19.130;2022-12-07T09:10:38;7.40;81.70
44063;DHT22;29727;47.606;19.130;2022-12-07T09:13:03;7.40;81.80
44063;DHT22;29727;47.606;19.130;2022-12-07T09:15:29;7.40;81.30
44063;DHT22;29727;47.606;19.130;2022-12-07T09:17:55;7.40;81.50
44063;DHT22;29727;47.606;19.130;2022-12-07T09:20:21;7.40;81.20
44063;DHT22;29727;47.606;19.130;2022-12-07T09:22:47;7.40;81.10
44063;DHT22;29727;47.606;19.130;2022-12-07T09:25:13;7.40;80.80
44063;DHT22;29727;47.606;19.130;2022-12-07T09:27:39;7.50;81.50
44063;DHT22;29727;47.606;19.130;2022-12-07T09:30:06;7.50;80.90
44063;DHT22;29727;47.606;19.130;2022-12-07T09:32:31;7.60;81.20
44063;DHT22;29727;47.606;19.130;2022-12-07T09:34:57;7.60;79.70
44063;DHT22;29727;47.606;19.130;2022-12-07T09:37:23;7.60;80.00
44063;DHT22;29727;47.606;19.130;2022-12-07T09:39:49;7.60;79.50
44063;DHT22;29727;47.606;19.130;2022-12-07T09:42:36;7.60;79.80
44063;DHT22;29727;47.606;19.130;2022-12-07T09:45:06;7.60;80.00
44063;DHT22;29727;47.606;19.130;2022-12-07T09:47:33;7.60;80.00
44063;DHT22;29727;47.606;19.130;2022-12-07T09:50:23;7.70;79.20
44063;DHT22;29727;47.606;19.130;2022-12-07T09:52:50;7.70;79.50
44063;DHT22;29727;47.606;19.130;2022-12-07T09:55:24;7.70;79.00
44063;DHT22;29727;47.606;19.130;2022-12-07T09:57:52;7.70;78.10
44063;DHT22;29727;47.606;19.130;2022-12-07T10:00:20;7.70;77.30
44063;DHT22;29727;47.606;19.130;2022-12-07T10:02:56;7.80;76.30
44063;DHT22;29727;47.606;19.130;2022-12-07T10:05:32;7.80;76.20
44063;DHT22;29727;47.606;19.130;2022-12-07T10:08:00;7.80;76.60
44063;DHT22;29727;47.606;19.130;2022-12-07T10:10:30;7.80;77.00
44063;DHT22;29727;47.606;19.130;2022-12-07T10:13:22;7.80;76.50
44063;DHT22;29727;47.606;19.130;2022-12-07T10:15:55;7.90;76.70
44063;DHT22;29727;47.606;19.130;2022-12-07T10:21:04;8.00;76.60
44063;DHT22;29727;47.606;19.130;2022-12-07T10:23:30;8.00;76.30
44063;DHT22;29727;47.606;19.130;2022-12-07T10:25:56;8.10;76.40
44063;DHT22;29727;47.606;19.130;2022-12-07T10:28:22;8.10;76.40
44063;DHT22;29727;47.606;19.130;2022-12-07T10:35:54;8.20;75.40
44063;DHT22;29727;47.606;19.130;2022-12-07T10:38:20;8.20;75.10
44063;DHT22;29727;47.606;19.130;2022-12-07T10:40:46;8.20;75.50
44063;DHT22;29727;47.606;19.130;2022-12-07T10:48:59;8.30;74.60
44063;DHT22;29727;47.606;19.130;2022-12-07T10:51:36;8.30;74.20
44063;DHT22;29727;47.606;19.130;2022-12-07T10:59:53;8.40;73.90
44063;DHT22;29727;47.606;19.130;2022-12-07T11:05:39;8.40;74.00
44063;DHT22;29727;47.606;19.130;2022-12-07T11:13:27;8.40;74.00
44063;DHT22;29727;47.606;19.130;2022-12-07T11:27:15;8.50;74.60
44063;DHT22;29727;47.606;19.130;2022-12-07T11:38:16;8.60;73.80
44063;DHT22;29727;47.606;19.130;2022-12-07T11:40:48;8.60;73.70
44063;DHT22;29727;47.606;19.130;2022-12-07T11:43:25;8.60;73.10
44063;DHT22;29727;47.606;19.130;2022-12-07T11:46:14;8.60;73.20
44063;DHT22;29727;47.606;19.130;2022-12-07T11:51:16;8.60;73.00
44063;DHT22;29727;47.606;19.130;2022-12-07T11:53:57;8.60;72.80
44063;DHT22;29727;47.606;19.130;2022-12-07T11:56:26;8.60;72.40
44063;DHT22;29727;47.606;19.130;2022-12-07T12:06:43;8.50;70.20
44063;DHT22;29727;47.606;19.130;2022-12-07T12:17:37;8.60;70.90
44063;DHT22;29727;47.606;19.130;2022-12-07T12:22:45;8.70;70.80
44063;DHT22;29727;47.606;19.130;2022-12-07T12:27:47;8.70;71.30
44063;DHT22;29727;47.606;19.130;2022-12-07T12:30:43;8.80;71.20
44063;DHT22;29727;47.606;19.130;2022-12-07T12:33:19;9.00;70.60
44063;DHT22;29727;47.606;19.130;2022-12-07T12:54:24;9.10;67.50
44063;DHT22;29727;47.606;19.130;2022-12-07T13:02:53;8.90;68.70
44063;DHT22;29727;47.606;19.130;2022-12-07T13:05:22;8.90;68.60
44063;DHT22;29727;47.606;19.130;2022-12-07T13:29:15;8.90;69.00
44063;DHT22;29727;47.606;19.130;2022-12-07T13:34:47;9.00;67.90
44063;DHT22;29727;47.606;19.130;2022-12-07T13:37:18;9.10;68.90
44063;DHT22;29727;47.606;19.130;2022-12-07T13:39:50;9.20;68.50
44063;DHT22;29727;47.606;19.130;2022-12-07T13:42:36;9.20;67.70
44063;DHT22;29727;47.606;19.130;2022-12-07T13:45:25;9.30;66.50
44063;DHT22;29727;47.606;19.130;2022-12-07T13:48:31;9.30;65.50
44063;DHT22;29727;47.606;19.130;2022-12-07T13:51:01;9.20;64.40
44063;DHT22;29727;47.606;19.130;2022-12-07T13:53:28;9.20;64.20
44063;DHT22;29727;47.606;19.130;2022-12-07T13:56:00;9.10;63.80
44063;DHT22;29727;47.606;19.130;2022-12-07T13:58:29;9.10;63.10
44063;DHT22;29727;47.606;19.130;2022-12-07T14:00:56;9.00;63.70
44063;DHT22;29727;47.606;19.130;2022-12-07T14:03:30;8.90;63.90
44063;DHT22;29727;47.606;19.130;2022-12-07T14:08:41;8.70;65.40
44063;DHT22;29727;47.606;19.130;2022-12-07T14:11:17;8.60;65.40
44063;DHT22;29727;47.606;19.130;2022-12-07T14:13:58;8.60;65.90
44063;DHT22;29727;47.606;19.130;2022-12-07T14:16:36;8.50;65.90
44063;DHT22;29727;47.606;19.130;2022-12-07T14:19:05;8.50;65.90
44063;DHT22;29727;47.606;19.130;2022-12-07T14:21:33;8.40;66.60
44063;DHT22;29727;47.606;19.130;2022-12-07T14:24:09;8.40;67.10
44063;DHT22;29727;47.606;19.130;2022-12-07T14:26:37;8.30;67.10
44063;DHT22;29727;47.606;19.130;2022-12-07T14:31:52;8.30;67.10
44063;DHT22;29727;47.606;19.130;2022-12-07T14:34:22;8.20;66.20
44063;DHT22;29727;47.606;19.130;2022-12-07T14:36:48;8.20;66.90
44063;DHT22;29727;47.606;19.130;2022-12-07T14:39:14;8.10;66.60
44063;DHT22;29727;47.606;19.130;2022-12-07T14:41:40;8.10;67.00
44063;DHT22;29727;47.606;19.130;2022-12-07T14:44:22;8.10;67.50
44063;DHT22;29727;47.606;19.130;2022-12-07T14:46:49;8.00;67.40
44063;DHT22;29727;47.606;19.130;2022-12-07T14:49:15;8.10;67.70
44063;DHT22;29727;47.606;19.130;2022-12-07T14:51:42;8.10;67.80
44063;DHT22;29727;47.606;19.130;2022-12-07T14:54:15;8.10;67.80
44063;DHT22;29727;47.606;19.130;2022-12-07T14:56:42;8.10;67.80
44063;DHT22;29727;47.606;19.130;2022-12-07T14:59:09;8.10;68.20
44063;DHT22;29727;47.606;19.130;2022-12-07T15:01:35;8.20;68.10
44063;DHT22;29727;47.606;19.130;2022-12-07T15:04:01;8.20;68.20
44063;DHT22;29727;47.606;19.130;2022-12-07T15:06:26;8.20;68.20
44063;DHT22;29727;47.606;19.130;2022-12-07T15:08:52;8.20;68.30
44063;DHT22;29727;47.606;19.130;2022-12-07T15:11:18;8.20;68.50
44063;DHT22;29727;47.606;19.130;2022-12-07T15:13:44;8.20;68.90
44063;DHT22;29727;47.606;19.130;2022-12-07T15:16:28;8.20;68.90
44063;DHT22;29727;47.606;19.130;2022-12-07T15:18:54;8.20;68.90
44063;DHT22;29727;47.606;19.130;2022-12-07T15:21:20;8.20;68.90
44063;DHT22;29727;47.606;19.130;2022-12-07T15:23:46;8.20;69.10
44063;DHT22;29727;47.606;19.130;2022-12-07T15:26:12;8.10;69.10
44063;DHT22;29727;47.606;19.130;2022-12-07T15:28:39;8.10;69.10
44063;DHT22;29727;47.606;19.130;2022-12-07T15:31:11;8.10;69.00
44063;DHT22;29727;47.606;19.130;2022-12-07T15:33:37;8.10;68.20
44063;DHT22;29727;47.606;19.130;2022-12-07T15:36:05;8.00;68.50
44063;DHT22;29727;47.606;19.130;2022-12-07T15:38:31;8.00;69.10
44063;DHT22;29727;47.606;19.130;2022-12-07T15:40:57;8.00;69.20
44063;DHT22;29727;47.606;19.130;2022-12-07T15:43:22;7.90;69.40
44063;DHT22;29727;47.606;19.130;2022-12-07T15:46:07;7.90;69.50
44063;DHT22;29727;47.606;19.130;2022-12-07T15:48:33;7.80;69.80
44063;DHT22;29727;47.606;19.130;2022-12-07T15:51:06;7.70;69.30
44063;DHT22;29727;47.606;19.130;2022-12-07T15:53:33;7.70;69.80
44063;DHT22;29727;47.606;19.130;2022-12-07T15:55:59;7.70;69.80
44063;DHT22;29727;47.606;19.130;2022-12-07T15:58:25;7.60;70.00
44063;DHT22;29727;47.606;19.130;2022-12-07T16:00:50;7.60;70.10
44063;DHT22;29727;47.606;19.130;2022-12-07T16:03:16;7.60;69.90
44063;DHT22;29727;47.606;19.130;2022-12-07T16:05:42;7.50;70.00
44063;DHT22;29727;47.606;19.130;2022-12-07T16:08:07;7.50;70.00
44063;DHT22;29727;47.606;19.130;2022-12-07T16:10:33;7.40;70.00
44063;DHT22;29727;47.606;19.130;2022-12-07T16:12:59;7.40;70.20
44063;DHT22;29727;47.606;19.130;2022-12-07T16:15:25;7.40;70.20
44063;DHT22;29727;47.606;19.130;2022-12-07T16:17:52;7.20;70.00
44063;DHT22;29727;47.606;19.130;2022-12-07T16:20:17;7.20;70.20
44063;DHT22;29727;47.606;19.130;2022-12-07T16:22:43;7.20;70.30
44063;DHT22;29727;47.606;19.130;2022-12-07T16:25:09;7.10;70.20
44063;DHT22;29727;47.606;19.130;2022-12-07T16:27:34;7.10;70.40
44063;DHT22;29727;47.606;19.130;2022-12-07T16:30:00;7.00;70.50
44063;DHT22;29727;47.606;19.130;2022-12-07T16:32:26;6.90;70.10
44063;DHT22;29727;47.606;19.130;2022-12-07T16:34:51;6.90;70.60
44063;DHT22;29727;47.606;19.130;2022-12-07T16:37:17;6.80;70.70
44063;DHT22;29727;47.606;19.130;2022-12-07T16:39:42;6.80;71.00
44063;DHT22;29727;47.606;19.130;2022-12-07T16:42:08;6.70;71.00
44063;DHT22;29727;47.606;19.130;2022-12-07T16:44:34;6.70;71.10
44063;DHT22;29727;47.606;19.130;2022-12-07T16:46:59;6.60;71.10
44063;DHT22;29727;47.606;19.130;2022-12-07T16:49:26;6.50;71.30
44063;DHT22;29727;47.606;19.130;2022-12-07T16:51:51;6.50;71.30
44063;DHT22;29727;47.606;19.130;2022-12-07T16:54:17;6.40;71.20
44063;DHT22;29727;47.606;19.130;2022-12-07T16:56:43;6.40;71.20
44063;DHT22;29727;47.606;19.130;2022-12-07T16:59:09;6.30;71.30
44063;DHT22;29727;47.606;19.130;2022-12-07T17:01:35;6.20;71.30
44063;DHT22;29727;47.606;19.130;2022-12-07T17:06:28;6.10;71.10
44063;DHT22;29727;47.606;19.130;2022-12-07T17:08:54;6.10;71.90
44063;DHT22;29727;47.606;19.130;2022-12-07T17:11:27;6.00;71.60
44063;DHT22;29727;47.606;19.130;2022-12-07T17:13:53;6.00;71.20
44063;DHT22;29727;47.606;19.130;2022-12-07T17:16:37;6.00;71.10
44063;DHT22;29727;47.606;19.130;2022-12-07T17:19:07;5.90;71.30
44063;DHT22;29727;47.606;19.130;2022-12-07T17:21:33;5.80;71.80
44063;DHT22;29727;47.606;19.130;2022-12-07T17:23:59;5.80;72.40
44063;DHT22;29727;47.606;19.130;2022-12-07T17:26:27;5.70;72.70
44063;DHT22;29727;47.606;19.130;2022-12-07T17:28:53;5.70;73.10
44063;DHT22;29727;47.606;19.130;2022-12-07T17:31:21;5.60;73.40
44063;DHT22;29727;47.606;19.130;2022-12-07T17:33:47;5.60;73.30
44063;DHT22;29727;47.606;19.130;2022-12-07T17:36:16;5.60;73.90
44063;DHT22;29727;47.606;19.130;2022-12-07T17:38:42;5.60;73.80
44063;DHT22;29727;47.606;19.130;2022-12-07T17:41:12;5.60;73.40
44063;DHT22;29727;47.606;19.130;2022-12-07T17:43:58;5.60;73.20
44063;DHT22;29727;47.606;19.130;2022-12-07T17:46:24;5.60;73.20
44063;DHT22;29727;47.606;19.130;2022-12-07T17:48:50;5.50;73.00
44063;DHT22;29727;47.606;19.130;2022-12-07T17:51:15;5.50;73.10
44063;DHT22;29727;47.606;19.130;2022-12-07T17:53:59;5.50;73.00
44063;DHT22;29727;47.606;19.130;2022-12-07T17:56:25;5.50;72.70
44063;DHT22;29727;47.606;19.130;2022-12-07T17:58:51;5.50;72.70
44063;DHT22;29727;47.606;19.130;2022-12-07T18:01:16;5.40;72.80
44063;DHT22;29727;47.606;19.130;2022-12-07T18:03:42;5.40;73.20
44063;DHT22;29727;47.606;19.130;2022-12-07T18:06:07;5.30;73.10
44063;DHT22;29727;47.606;19.130;2022-12-07T18:08:36;5.30;73.30
44063;DHT22;29727;47.606;19.130;2022-12-07T18:11:04;5.30;73.70
44063;DHT22;29727;47.606;19.130;2022-12-07T18:13:30;5.20;73.90
44063;DHT22;29727;47.606;19.130;2022-12-07T18:16:07;5.20;73.80